Terminal Aerodrome Forecast
Issued by NWS

Home | Current Version | Previous Version | Text Only | Print | Product List | Glossary On
Versions: 1 2 3 4 5 6 7 8 9 10 11 12 13 14 15 16 17 18 19 20 21 22 23 24 25 26 27
068
FTUS41 KBOX 112335
TAFHYA
TAF
KHYA 112335Z 1200/1224 28015G27KT P6SM FEW050
     FM120300 29016G29KT P6SM SCT250
     FM120400 29015G28KT P6SM SCT250
     FM121200 29010G20KT P6SM FEW250
     FM121700 27009KT P6SM SCT250=

USA.gov is the U.S. government's official web portal to all federal, state and local government web resources and services.